Terminal Aerodrome Forecast
Issued by NWS Grand Forks, ND

Home | Current Version | Previous Version | Text Only | Print | Product List | Glossary Off
Versions: 1 2 3 4 5 6 7 8 9 10 11 12 13 14 15 16 17

000
FTUS43 KFGF 261800 AAA
TAFFAR
TAF AMD
KFAR 261841Z 2619/2718 35012KT P6SM BKN026
      TEMPO 2619/2622 4SM -SN BR BKN018
     FM270900 31005KT P6SM SCT025
     FM271200 21005KT P6SM SCT025=

USA.gov is the U.S. government's official web portal to all federal, state and local government web resources and services.